sensor_id;sensor_type;location;lat;lon;timestamp;P1;durP1;ratioP1;P2;durP2;ratioP2
20365;SDS011;10341;49.894;8.822;2022-07-29T00:03:22;2.70;;;1.63;;
20365;SDS011;10341;49.894;8.822;2022-07-29T00:08:41;2.97;;;1.90;;
20365;SDS011;10341;49.894;8.822;2022-07-29T00:14:01;2.13;;;1.80;;
20365;SDS011;10341;49.894;8.822;2022-07-29T00:19:20;1.83;;;1.60;;
20365;SDS011;10341;49.894;8.822;2022-07-29T00:24:39;2.90;;;1.75;;
20365;SDS011;10341;49.894;8.822;2022-07-29T00:29:58;2.13;;;1.80;;
20365;SDS011;10341;49.894;8.822;2022-07-29T00:35:18;3.53;;;1.80;;
20365;SDS011;10341;49.894;8.822;2022-07-29T00:40:57;4.20;;;1.83;;
20365;SDS011;10341;49.894;8.822;2022-07-29T00:46:16;3.55;;;1.92;;
20365;SDS011;10341;49.894;8.822;2022-07-29T00:51:35;4.38;;;2.08;;
20365;SDS011;10341;49.894;8.822;2022-07-29T00:56:59;5.10;;;2.35;;
20365;SDS011;10341;49.894;8.822;2022-07-29T01:02:19;3.10;;;1.80;;
20365;SDS011;10341;49.894;8.822;2022-07-29T01:07:38;3.78;;;2.08;;
20365;SDS011;10341;49.894;8.822;2022-07-29T01:12:58;6.20;;;2.33;;
20365;SDS011;10341;49.894;8.822;2022-07-29T01:18:42;5.32;;;1.75;;
20365;SDS011;10341;49.894;8.822;2022-07-29T01:24:11;4.53;;;1.95;;
20365;SDS011;10341;49.894;8.822;2022-07-29T01:30:17;4.97;;;1.67;;
20365;SDS011;10341;49.894;8.822;2022-07-29T01:35:39;2.58;;;1.65;;
20365;SDS011;10341;49.894;8.822;2022-07-29T01:41:05;3.10;;;1.53;;
20365;SDS011;10341;49.894;8.822;2022-07-29T01:46:36;2.92;;;1.77;;
20365;SDS011;10341;49.894;8.822;2022-07-29T01:52:05;3.67;;;1.60;;
20365;SDS011;10341;49.894;8.822;2022-07-29T01:57:33;2.42;;;1.33;;
20365;SDS011;10341;49.894;8.822;2022-07-29T02:02:57;1.50;;;1.40;;
20365;SDS011;10341;49.894;8.822;2022-07-29T02:08:19;1.77;;;1.42;;
20365;SDS011;10341;49.894;8.822;2022-07-29T02:13:40;2.30;;;1.60;;
20365;SDS011;10341;49.894;8.822;2022-07-29T02:19:01;3.55;;;1.70;;
20365;SDS011;10341;49.894;8.822;2022-07-29T02:24:22;3.15;;;1.70;;
20365;SDS011;10341;49.894;8.822;2022-07-29T02:29:42;2.47;;;1.48;;
20365;SDS011;10341;49.894;8.822;2022-07-29T02:35:04;4.20;;;1.95;;
20365;SDS011;10341;49.894;8.822;2022-07-29T02:45:43;2.47;;;1.55;;
20365;SDS011;10341;49.894;8.822;2022-07-29T02:51:28;6.18;;;1.80;;
20365;SDS011;10341;49.894;8.822;2022-07-29T02:56:51;2.83;;;2.10;;
20365;SDS011;10341;49.894;8.822;2022-07-29T03:02:13;3.65;;;1.92;;
20365;SDS011;10341;49.894;8.822;2022-07-29T03:07:34;3.15;;;1.80;;
20365;SDS011;10341;49.894;8.822;2022-07-29T03:12:55;3.72;;;1.73;;
20365;SDS011;10341;49.894;8.822;2022-07-29T03:18:16;4.07;;;1.90;;
20365;SDS011;10341;49.894;8.822;2022-07-29T03:23:35;5.23;;;1.90;;
20365;SDS011;10341;49.894;8.822;2022-07-29T03:28:55;3.37;;;1.87;;
20365;SDS011;10341;49.894;8.822;2022-07-29T03:34:14;2.80;;;1.83;;
20365;SDS011;10341;49.894;8.822;2022-07-29T03:39:35;2.85;;;1.77;;
20365;SDS011;10341;49.894;8.822;2022-07-29T03:44:58;3.45;;;2.00;;
20365;SDS011;10341;49.894;8.822;2022-07-29T03:50:20;1.60;;;1.50;;
20365;SDS011;10341;49.894;8.822;2022-07-29T03:55:41;3.45;;;1.73;;
20365;SDS011;10341;49.894;8.822;2022-07-29T04:01:03;3.00;;;2.10;;
20365;SDS011;10341;49.894;8.822;2022-07-29T04:06:23;3.43;;;2.30;;
20365;SDS011;10341;49.894;8.822;2022-07-29T04:11:44;6.28;;;2.10;;
20365;SDS011;10341;49.894;8.822;2022-07-29T04:17:04;2.97;;;1.80;;
20365;SDS011;10341;49.894;8.822;2022-07-29T04:22:23;2.15;;;1.90;;
20365;SDS011;10341;49.894;8.822;2022-07-29T04:27:42;2.78;;;1.90;;
20365;SDS011;10341;49.894;8.822;2022-07-29T04:33:18;2.40;;;1.98;;
20365;SDS011;10341;49.894;8.822;2022-07-29T04:38:37;3.28;;;2.03;;
20365;SDS011;10341;49.894;8.822;2022-07-29T04:43:57;5.43;;;2.47;;
20365;SDS011;10341;49.894;8.822;2022-07-29T04:49:16;4.70;;;2.57;;
20365;SDS011;10341;49.894;8.822;2022-07-29T04:54:35;9.60;;;2.70;;
20365;SDS011;10341;49.894;8.822;2022-07-29T04:59:54;6.75;;;2.20;;
20365;SDS011;10341;49.894;8.822;2022-07-29T05:05:13;5.50;;;2.10;;
20365;SDS011;10341;49.894;8.822;2022-07-29T05:10:33;4.10;;;1.93;;
20365;SDS011;10341;49.894;8.822;2022-07-29T05:15:56;6.35;;;2.13;;
20365;SDS011;10341;49.894;8.822;2022-07-29T05:21:16;6.30;;;2.08;;
20365;SDS011;10341;49.894;8.822;2022-07-29T05:26:35;2.95;;;1.75;;
20365;SDS011;10341;49.894;8.822;2022-07-29T05:31:54;2.75;;;2.20;;
20365;SDS011;10341;49.894;8.822;2022-07-29T05:37:14;4.97;;;2.30;;
20365;SDS011;10341;49.894;8.822;2022-07-29T05:42:34;5.20;;;2.40;;
20365;SDS011;10341;49.894;8.822;2022-07-29T05:47:53;8.60;;;2.67;;
20365;SDS011;10341;49.894;8.822;2022-07-29T05:53:12;3.33;;;1.95;;
20365;SDS011;10341;49.894;8.822;2022-07-29T05:58:31;4.30;;;1.92;;
20365;SDS011;10341;49.894;8.822;2022-07-29T06:03:50;5.22;;;2.10;;
20365;SDS011;10341;49.894;8.822;2022-07-29T06:09:09;4.30;;;2.15;;
20365;SDS011;10341;49.894;8.822;2022-07-29T06:14:28;3.08;;;2.03;;
20365;SDS011;10341;49.894;8.822;2022-07-29T06:19:47;2.55;;;1.90;;
20365;SDS011;10341;49.894;8.822;2022-07-29T06:25:06;4.53;;;2.17;;
20365;SDS011;10341;49.894;8.822;2022-07-29T06:30:26;2.78;;;2.28;;
20365;SDS011;10341;49.894;8.822;2022-07-29T06:35:47;4.50;;;2.22;;
20365;SDS011;10341;49.894;8.822;2022-07-29T06:41:08;4.63;;;2.40;;
20365;SDS011;10341;49.894;8.822;2022-07-29T06:46:31;4.13;;;2.58;;
20365;SDS011;10341;49.894;8.822;2022-07-29T06:51:51;4.10;;;2.28;;
20365;SDS011;10341;49.894;8.822;2022-07-29T07:02:30;5.07;;;2.50;;
20365;SDS011;10341;49.894;8.822;2022-07-29T07:13:10;6.80;;;2.70;;
20365;SDS011;10341;49.894;8.822;2022-07-29T07:18:29;3.25;;;2.30;;
20365;SDS011;10341;49.894;8.822;2022-07-29T07:23:49;6.67;;;3.00;;
20365;SDS011;10341;49.894;8.822;2022-07-29T07:29:07;4.35;;;2.40;;
20365;SDS011;10341;49.894;8.822;2022-07-29T07:34:27;4.00;;;2.28;;
20365;SDS011;10341;49.894;8.822;2022-07-29T07:39:46;5.45;;;2.30;;
20365;SDS011;10341;49.894;8.822;2022-07-29T07:45:06;3.38;;;2.15;;
20365;SDS011;10341;49.894;8.822;2022-07-29T07:50:27;4.18;;;2.35;;
20365;SDS011;10341;49.894;8.822;2022-07-29T07:55:47;4.32;;;2.47;;
20365;SDS011;10341;49.894;8.822;2022-07-29T08:01:06;2.92;;;2.33;;
20365;SDS011;10341;49.894;8.822;2022-07-29T08:11:45;3.53;;;2.30;;
20365;SDS011;10341;49.894;8.822;2022-07-29T08:17:05;4.75;;;2.17;;
20365;SDS011;10341;49.894;8.822;2022-07-29T08:22:24;3.83;;;2.47;;
20365;SDS011;10341;49.894;8.822;2022-07-29T08:27:43;4.40;;;2.40;;
20365;SDS011;10341;49.894;8.822;2022-07-29T08:33:03;5.57;;;2.35;;
20365;SDS011;10341;49.894;8.822;2022-07-29T08:38:22;4.85;;;2.25;;
20365;SDS011;10341;49.894;8.822;2022-07-29T08:43:41;6.22;;;2.40;;
20365;SDS011;10341;49.894;8.822;2022-07-29T08:49:01;3.33;;;1.92;;
20365;SDS011;10341;49.894;8.822;2022-07-29T08:54:21;2.72;;;2.17;;
20365;SDS011;10341;49.894;8.822;2022-07-29T08:59:42;5.32;;;2.60;;
20365;SDS011;10341;49.894;8.822;2022-07-29T09:05:01;3.25;;;2.38;;
20365;SDS011;10341;49.894;8.822;2022-07-29T09:10:21;5.13;;;2.40;;
20365;SDS011;10341;49.894;8.822;2022-07-29T09:15:41;3.10;;;2.40;;
20365;SDS011;10341;49.894;8.822;2022-07-29T09:21:01;3.53;;;2.20;;
20365;SDS011;10341;49.894;8.822;2022-07-29T09:32:00;3.45;;;2.17;;
20365;SDS011;10341;49.894;8.822;2022-07-29T09:37:26;3.65;;;2.22;;
20365;SDS011;10341;49.894;8.822;2022-07-29T09:42:46;3.42;;;2.40;;
20365;SDS011;10341;49.894;8.822;2022-07-29T09:48:15;2.40;;;2.05;;
20365;SDS011;10341;49.894;8.822;2022-07-29T09:53:36;3.90;;;2.22;;
20365;SDS011;10341;49.894;8.822;2022-07-29T09:59:05;2.95;;;2.20;;
20365;SDS011;10341;49.894;8.822;2022-07-29T10:04:41;3.63;;;2.25;;
20365;SDS011;10341;49.894;8.822;2022-07-29T10:10:01;3.47;;;2.00;;
20365;SDS011;10341;49.894;8.822;2022-07-29T10:15:21;3.28;;;1.90;;
20365;SDS011;10341;49.894;8.822;2022-07-29T10:20:42;3.38;;;2.42;;
20365;SDS011;10341;49.894;8.822;2022-07-29T10:26:02;4.88;;;2.13;;
20365;SDS011;10341;49.894;8.822;2022-07-29T10:31:26;2.90;;;2.20;;
20365;SDS011;10341;49.894;8.822;2022-07-29T10:42:24;2.50;;;2.10;;
20365;SDS011;10341;49.894;8.822;2022-07-29T10:47:46;2.45;;;2.08;;
20365;SDS011;10341;49.894;8.822;2022-07-29T10:53:05;3.92;;;2.30;;
20365;SDS011;10341;49.894;8.822;2022-07-29T10:58:24;3.78;;;2.22;;
20365;SDS011;10341;49.894;8.822;2022-07-29T11:03:44;2.22;;;2.00;;
20365;SDS011;10341;49.894;8.822;2022-07-29T11:09:14;2.42;;;1.90;;
20365;SDS011;10341;49.894;8.822;2022-07-29T11:14:54;3.03;;;2.20;;
20365;SDS011;10341;49.894;8.822;2022-07-29T11:31:40;2.33;;;2.13;;
20365;SDS011;10341;49.894;8.822;2022-07-29T11:47:48;2.28;;;2.00;;
20365;SDS011;10341;49.894;8.822;2022-07-29T11:53:12;2.42;;;2.08;;
20365;SDS011;10341;49.894;8.822;2022-07-29T11:58:33;2.28;;;2.08;;
20365;SDS011;10341;49.894;8.822;2022-07-29T12:04:01;3.83;;;2.35;;
20365;SDS011;10341;49.894;8.822;2022-07-29T12:09:23;3.22;;;2.30;;
20365;SDS011;10341;49.894;8.822;2022-07-29T12:14:43;4.18;;;2.40;;
20365;SDS011;10341;49.894;8.822;2022-07-29T12:20:05;5.30;;;2.50;;
20365;SDS011;10341;49.894;8.822;2022-07-29T12:25:24;3.58;;;2.40;;
20365;SDS011;10341;49.894;8.822;2022-07-29T12:30:44;4.03;;;2.63;;
20365;SDS011;10341;49.894;8.822;2022-07-29T12:36:07;2.78;;;2.45;;
20365;SDS011;10341;49.894;8.822;2022-07-29T12:41:27;3.33;;;2.60;;
20365;SDS011;10341;49.894;8.822;2022-07-29T12:47:00;3.80;;;3.00;;
20365;SDS011;10341;49.894;8.822;2022-07-29T12:52:28;3.15;;;2.80;;
20365;SDS011;10341;49.894;8.822;2022-07-29T12:57:49;3.30;;;2.58;;
20365;SDS011;10341;49.894;8.822;2022-07-29T13:03:10;4.10;;;2.55;;
20365;SDS011;10341;49.894;8.822;2022-07-29T13:13:51;2.60;;;2.40;;
20365;SDS011;10341;49.894;8.822;2022-07-29T13:19:11;5.40;;;3.13;;
20365;SDS011;10341;49.894;8.822;2022-07-29T13:24:31;3.72;;;2.70;;
20365;SDS011;10341;49.894;8.822;2022-07-29T13:29:50;3.28;;;2.92;;
20365;SDS011;10341;49.894;8.822;2022-07-29T13:35:10;5.00;;;2.92;;
20365;SDS011;10341;49.894;8.822;2022-07-29T13:40:30;3.88;;;2.80;;
20365;SDS011;10341;49.894;8.822;2022-07-29T13:45:49;3.88;;;2.80;;
20365;SDS011;10341;49.894;8.822;2022-07-29T13:51:08;4.22;;;2.80;;
20365;SDS011;10341;49.894;8.822;2022-07-29T13:56:27;5.55;;;3.00;;
20365;SDS011;10341;49.894;8.822;2022-07-29T14:01:46;4.55;;;3.17;;
20365;SDS011;10341;49.894;8.822;2022-07-29T14:07:05;5.43;;;2.87;;
20365;SDS011;10341;49.894;8.822;2022-07-29T14:12:25;3.05;;;2.72;;
20365;SDS011;10341;49.894;8.822;2022-07-29T14:17:44;3.08;;;2.53;;
20365;SDS011;10341;49.894;8.822;2022-07-29T14:23:03;3.25;;;2.72;;
20365;SDS011;10341;49.894;8.822;2022-07-29T14:28:22;3.65;;;2.72;;
20365;SDS011;10341;49.894;8.822;2022-07-29T14:33:41;6.00;;;2.80;;
20365;SDS011;10341;49.894;8.822;2022-07-29T14:39:01;4.60;;;2.60;;
20365;SDS011;10341;49.894;8.822;2022-07-29T14:44:20;4.45;;;3.00;;
20365;SDS011;10341;49.894;8.822;2022-07-29T14:54:59;3.17;;;2.88;;
20365;SDS011;10341;49.894;8.822;2022-07-29T15:00:18;4.63;;;3.40;;
20365;SDS011;10341;49.894;8.822;2022-07-29T15:05:37;4.10;;;3.20;;
20365;SDS011;10341;49.894;8.822;2022-07-29T15:10:57;4.88;;;3.70;;
20365;SDS011;10341;49.894;8.822;2022-07-29T15:16:17;4.32;;;3.30;;
20365;SDS011;10341;49.894;8.822;2022-07-29T15:21:37;5.22;;;4.05;;
20365;SDS011;10341;49.894;8.822;2022-07-29T15:26:56;4.15;;;3.53;;
20365;SDS011;10341;49.894;8.822;2022-07-29T15:32:15;5.90;;;3.23;;
20365;SDS011;10341;49.894;8.822;2022-07-29T15:37:34;5.00;;;3.27;;
20365;SDS011;10341;49.894;8.822;2022-07-29T15:42:55;4.93;;;3.35;;
20365;SDS011;10341;49.894;8.822;2022-07-29T15:48:14;5.05;;;3.42;;
20365;SDS011;10341;49.894;8.822;2022-07-29T15:53:33;6.70;;;3.20;;
20365;SDS011;10341;49.894;8.822;2022-07-29T15:58:52;5.40;;;3.73;;
20365;SDS011;10341;49.894;8.822;2022-07-29T16:04:11;9.05;;;3.70;;
20365;SDS011;10341;49.894;8.822;2022-07-29T16:09:31;4.87;;;3.90;;
20365;SDS011;10341;49.894;8.822;2022-07-29T16:14:50;3.58;;;3.25;;
20365;SDS011;10341;49.894;8.822;2022-07-29T16:20:10;5.22;;;3.40;;
20365;SDS011;10341;49.894;8.822;2022-07-29T16:25:30;3.83;;;3.42;;
20365;SDS011;10341;49.894;8.822;2022-07-29T16:30:49;3.97;;;3.50;;
20365;SDS011;10341;49.894;8.822;2022-07-29T16:36:09;3.88;;;3.47;;
20365;SDS011;10341;49.894;8.822;2022-07-29T16:41:28;4.22;;;3.47;;
20365;SDS011;10341;49.894;8.822;2022-07-29T16:46:47;4.47;;;3.60;;
20365;SDS011;10341;49.894;8.822;2022-07-29T16:52:06;6.43;;;3.45;;
20365;SDS011;10341;49.894;8.822;2022-07-29T16:57:25;3.50;;;3.20;;
20365;SDS011;10341;49.894;8.822;2022-07-29T17:02:45;3.35;;;2.85;;
20365;SDS011;10341;49.894;8.822;2022-07-29T17:08:04;5.43;;;3.08;;
20365;SDS011;10341;49.894;8.822;2022-07-29T17:13:23;3.97;;;2.80;;
20365;SDS011;10341;49.894;8.822;2022-07-29T17:18:42;4.65;;;2.50;;
20365;SDS011;10341;49.894;8.822;2022-07-29T17:24:01;3.85;;;2.33;;
20365;SDS011;10341;49.894;8.822;2022-07-29T17:29:21;4.07;;;2.88;;
20365;SDS011;10341;49.894;8.822;2022-07-29T17:34:40;2.80;;;2.50;;
20365;SDS011;10341;49.894;8.822;2022-07-29T17:40:00;3.17;;;2.88;;
20365;SDS011;10341;49.894;8.822;2022-07-29T17:45:20;3.60;;;2.83;;
20365;SDS011;10341;49.894;8.822;2022-07-29T17:50:39;4.88;;;3.05;;
20365;SDS011;10341;49.894;8.822;2022-07-29T17:55:58;3.58;;;2.90;;
20365;SDS011;10341;49.894;8.822;2022-07-29T18:01:17;3.45;;;2.90;;
20365;SDS011;10341;49.894;8.822;2022-07-29T18:06:37;3.25;;;2.95;;
20365;SDS011;10341;49.894;8.822;2022-07-29T18:11:56;3.20;;;2.90;;
20365;SDS011;10341;49.894;8.822;2022-07-29T18:17:15;3.60;;;3.10;;
20365;SDS011;10341;49.894;8.822;2022-07-29T18:22:35;4.75;;;3.08;;
20365;SDS011;10341;49.894;8.822;2022-07-29T18:27:54;6.38;;;3.70;;
20365;SDS011;10341;49.894;8.822;2022-07-29T18:33:14;8.00;;;3.35;;
20365;SDS011;10341;49.894;8.822;2022-07-29T18:38:38;2.80;;;2.45;;
20365;SDS011;10341;49.894;8.822;2022-07-29T18:43:58;4.88;;;3.28;;
20365;SDS011;10341;49.894;8.822;2022-07-29T18:49:18;5.63;;;4.00;;
20365;SDS011;10341;49.894;8.822;2022-07-29T18:54:37;5.65;;;4.22;;
20365;SDS011;10341;49.894;8.822;2022-07-29T18:59:56;4.32;;;3.80;;
20365;SDS011;10341;49.894;8.822;2022-07-29T19:05:16;7.35;;;4.32;;
20365;SDS011;10341;49.894;8.822;2022-07-29T19:10:35;6.80;;;5.38;;
20365;SDS011;10341;49.894;8.822;2022-07-29T19:15:55;3.47;;;3.13;;
20365;SDS011;10341;49.894;8.822;2022-07-29T19:21:15;5.60;;;4.57;;
20365;SDS011;10341;49.894;8.822;2022-07-29T19:26:34;5.87;;;4.90;;
20365;SDS011;10341;49.894;8.822;2022-07-29T19:31:56;6.47;;;4.80;;
20365;SDS011;10341;49.894;8.822;2022-07-29T19:37:17;6.15;;;4.88;;
20365;SDS011;10341;49.894;8.822;2022-07-29T19:42:36;9.50;;;5.10;;
20365;SDS011;10341;49.894;8.822;2022-07-29T19:47:56;8.83;;;5.77;;
20365;SDS011;10341;49.894;8.822;2022-07-29T19:53:16;9.98;;;5.03;;
20365;SDS011;10341;49.894;8.822;2022-07-29T19:58:35;8.83;;;5.73;;
20365;SDS011;10341;49.894;8.822;2022-07-29T20:03:55;10.20;;;7.07;;
20365;SDS011;10341;49.894;8.822;2022-07-29T20:09:14;6.27;;;5.10;;
20365;SDS011;10341;49.894;8.822;2022-07-29T20:14:34;8.90;;;7.10;;
20365;SDS011;10341;49.894;8.822;2022-07-29T20:19:53;7.68;;;6.40;;
20365;SDS011;10341;49.894;8.822;2022-07-29T20:25:13;11.80;;;7.72;;
20365;SDS011;10341;49.894;8.822;2022-07-29T20:30:33;9.35;;;6.50;;
20365;SDS011;10341;49.894;8.822;2022-07-29T20:35:52;8.82;;;6.40;;
20365;SDS011;10341;49.894;8.822;2022-07-29T20:41:11;7.57;;;5.97;;
20365;SDS011;10341;49.894;8.822;2022-07-29T20:46:31;7.05;;;5.72;;
20365;SDS011;10341;49.894;8.822;2022-07-29T20:51:51;6.90;;;5.47;;
20365;SDS011;10341;49.894;8.822;2022-07-29T20:57:10;10.00;;;5.93;;
20365;SDS011;10341;49.894;8.822;2022-07-29T21:02:29;6.65;;;5.13;;
20365;SDS011;10341;49.894;8.822;2022-07-29T21:07:49;6.03;;;5.10;;
20365;SDS011;10341;49.894;8.822;2022-07-29T21:13:09;8.35;;;4.95;;
20365;SDS011;10341;49.894;8.822;2022-07-29T21:18:28;5.50;;;4.63;;
20365;SDS011;10341;49.894;8.822;2022-07-29T21:29:08;6.55;;;5.18;;
20365;SDS011;10341;49.894;8.822;2022-07-29T21:34:27;6.32;;;5.30;;
20365;SDS011;10341;49.894;8.822;2022-07-29T21:39:46;7.78;;;6.10;;
20365;SDS011;10341;49.894;8.822;2022-07-29T21:45:05;9.48;;;6.07;;
20365;SDS011;10341;49.894;8.822;2022-07-29T21:50:24;6.97;;;5.80;;
20365;SDS011;10341;49.894;8.822;2022-07-29T21:55:43;7.55;;;5.75;;
20365;SDS011;10341;49.894;8.822;2022-07-29T22:01:04;9.70;;;6.20;;
20365;SDS011;10341;49.894;8.822;2022-07-29T22:06:23;8.13;;;6.25;;
20365;SDS011;10341;49.894;8.822;2022-07-29T22:11:42;7.95;;;6.10;;
20365;SDS011;10341;49.894;8.822;2022-07-29T22:17:02;8.18;;;6.22;;
20365;SDS011;10341;49.894;8.822;2022-07-29T22:22:22;7.15;;;5.43;;
20365;SDS011;10341;49.894;8.822;2022-07-29T22:27:41;8.02;;;6.63;;
20365;SDS011;10341;49.894;8.822;2022-07-29T22:33:00;7.38;;;5.90;;
20365;SDS011;10341;49.894;8.822;2022-07-29T22:38:19;8.90;;;6.10;;
20365;SDS011;10341;49.894;8.822;2022-07-29T22:43:38;6.10;;;5.50;;
20365;SDS011;10341;49.894;8.822;2022-07-29T22:48:58;9.98;;;6.28;;
20365;SDS011;10341;49.894;8.822;2022-07-29T22:54:18;6.78;;;5.60;;
20365;SDS011;10341;49.894;8.822;2022-07-29T22:59:37;9.48;;;7.10;;
20365;SDS011;10341;49.894;8.822;2022-07-29T23:04:56;7.00;;;5.95;;
20365;SDS011;10341;49.894;8.822;2022-07-29T23:10:15;9.77;;;7.50;;
20365;SDS011;10341;49.894;8.822;2022-07-29T23:15:36;7.80;;;6.40;;
20365;SDS011;10341;49.894;8.822;2022-07-29T23:20:55;9.13;;;6.43;;
20365;SDS011;10341;49.894;8.822;2022-07-29T23:26:15;6.88;;;6.18;;
20365;SDS011;10341;49.894;8.822;2022-07-29T23:31:34;7.10;;;5.68;;
20365;SDS011;10341;49.894;8.822;2022-07-29T23:36:53;6.85;;;5.93;;
20365;SDS011;10341;49.894;8.822;2022-07-29T23:42:12;8.70;;;6.95;;
20365;SDS011;10341;49.894;8.822;2022-07-29T23:47:31;10.80;;;7.88;;
20365;SDS011;10341;49.894;8.822;2022-07-29T23:52:50;8.93;;;7.72;;
20365;SDS011;10341;49.894;8.822;2022-07-29T23:58:09;11.18;;;7.88;;
